Weather at Central Nebraska Regional Airport

Public forecast

Using degrees Fahrenheit for public forecast. Weather courtesy of forecast.io.

Current aviation weather report (METAR) for Central Nebraska Regional Airport

Report is more than 6 hours old.

2022/11/14 14:53 (retrieved 2 years ago)

KGRI 141453Z 34012KT 10SM FEW100 M05/M10 A3018 RMK AO2 SLP247 T10501100 53012

Aviation forecast (TAF) for Central Nebraska Regional Airport

Forecast is more than 12 hours old.

2023/02/22 18:52 (retrieved 1 year ago)

TAF KGRI 221750Z 2218/2318 36018G25KT 2SM -SN BR OVC012 FM230000 36017G24KT 6SM -SN BR OVC012 FM230400 33017G24KT 1SM -SN BR OVC011 FM230700 31020G29KT P6SM BKN020 FM231200 32019G28KT P6SM SCT020